createdAt,value
2022-11-18T00:03:32.921Z,7.08
2022-11-18T00:08:39.115Z,6.92
2022-11-18T00:13:45.195Z,7.32
2022-11-18T00:18:51.400Z,7.68
2022-11-18T00:23:57.495Z,8.03
2022-11-18T00:29:03.714Z,8.33
2022-11-18T00:34:09.804Z,7.70
2022-11-18T00:39:16.461Z,8.32
2022-11-18T00:44:21.758Z,8.41
2022-11-18T00:49:27.937Z,8.74
2022-11-18T00:54:34.017Z,8.99
2022-11-18T00:59:40.424Z,8.91
2022-11-18T01:04:46.536Z,8.51
2022-11-18T01:09:52.740Z,7.98
2022-11-18T01:14:59.013Z,8.43
2022-11-18T01:20:05.521Z,8.38
2022-11-18T01:25:11.604Z,8.45
2022-11-18T01:30:17.923Z,8.60
2022-11-18T01:35:24.011Z,8.30
2022-11-18T01:40:30.212Z,9.31
2022-11-18T01:45:36.317Z,9.57
2022-11-18T01:50:42.507Z,9.57
2022-11-18T01:55:48.577Z,9.41
2022-11-18T02:00:55.075Z,8.93
2022-11-18T02:06:01.109Z,9.08
2022-11-18T02:11:07.328Z,8.91
2022-11-18T02:16:13.511Z,8.99
2022-11-18T02:21:19.665Z,9.29
2022-11-18T02:26:25.747Z,8.64
2022-11-18T02:31:32.222Z,8.48
2022-11-18T02:36:38.345Z,8.87
2022-11-18T02:41:44.545Z,8.72
2022-11-18T02:46:50.621Z,8.05
2022-11-18T02:51:56.791Z,7.95
2022-11-18T02:57:03.664Z,8.55
2022-11-18T03:02:10.213Z,9.02
2022-11-18T03:07:16.370Z,8.87
2022-11-18T03:12:22.470Z,8.94
2022-11-18T03:17:28.548Z,9.15
2022-11-18T03:22:34.771Z,8.19
2022-11-18T03:27:40.874Z,8.15
2022-11-18T03:32:47.110Z,7.38
2022-11-18T03:37:53.196Z,7.20
2022-11-18T03:42:59.483Z,6.85
2022-11-18T03:48:05.553Z,6.59
2022-11-18T03:53:11.769Z,6.67
2022-11-18T03:58:17.878Z,6.90
2022-11-18T04:03:24.016Z,6.91
2022-11-18T04:08:30.126Z,6.89
2022-11-18T04:13:36.309Z,7.06
2022-11-18T04:18:42.849Z,7.35
2022-11-18T04:23:49.060Z,8.26
2022-11-18T04:28:55.133Z,9.31
2022-11-18T04:34:01.328Z,9.08
2022-11-18T04:39:07.393Z,9.15
2022-11-18T04:44:13.720Z,9.76
2022-11-18T04:49:20.109Z,9.51
2022-11-18T04:54:26.477Z,10.28
2022-11-18T04:59:32.920Z,11.81
2022-11-18T05:04:39.075Z,11.93
2022-11-18T05:09:45.496Z,12.29
2022-11-18T05:14:52.063Z,12.71
2022-11-18T05:19:58.157Z,13.66
2022-11-18T05:25:04.398Z,12.93
2022-11-18T05:30:10.564Z,13.37
2022-11-18T05:35:16.749Z,13.41
2022-11-18T05:40:22.816Z,12.91
2022-11-18T05:45:29.063Z,13.15
2022-11-18T05:50:35.076Z,12.53
2022-11-18T05:55:41.722Z,13.13
2022-11-18T06:00:47.863Z,13.21
2022-11-18T06:05:54.103Z,13.43
2022-11-18T06:11:00.211Z,13.83
2022-11-18T06:16:06.773Z,13.54
2022-11-18T06:21:13.206Z,13.43
2022-11-18T06:26:19.492Z,14.03
2022-11-18T06:31:25.634Z,13.46
2022-11-18T06:36:32.156Z,13.51
2022-11-18T06:41:38.254Z,13.95
2022-11-18T06:46:44.780Z,13.39
2022-11-18T06:51:50.851Z,14.25
2022-11-18T06:56:57.074Z,13.94
2022-11-18T07:02:03.156Z,13.44
2022-11-18T07:07:09.453Z,14.57
2022-11-18T07:12:15.424Z,14.19
2022-11-18T07:17:21.650Z,15.22
2022-11-18T07:22:27.729Z,15.00
2022-11-18T07:27:33.914Z,14.64
2022-11-18T07:32:40.082Z,14.86
2022-11-18T07:37:46.248Z,15.25
2022-11-18T07:42:52.714Z,13.79
2022-11-18T07:47:58.961Z,14.12
2022-11-18T07:53:05.071Z,14.21
2022-11-18T07:58:11.337Z,13.57
2022-11-18T08:03:17.448Z,14.55
2022-11-18T08:08:23.644Z,14.79
2022-11-18T08:13:30.118Z,15.63
2022-11-18T08:18:36.316Z,15.07
2022-11-18T08:23:42.930Z,15.74
2022-11-18T08:28:48.324Z,15.45
2022-11-18T08:33:54.339Z,15.06
2022-11-18T08:39:00.583Z,15.29
2022-11-18T08:44:06.716Z,15.52
2022-11-18T08:49:12.955Z,16.12
2022-11-18T08:54:19.080Z,15.34
2022-11-18T08:59:25.321Z,15.68
2022-11-18T09:04:31.430Z,16.01
2022-11-18T09:09:37.614Z,16.88
2022-11-18T09:15:13.814Z,17.57
2022-11-18T09:19:49.525Z,17.03
2022-11-18T09:24:55.612Z,16.52
2022-11-18T09:30:01.824Z,16.52
2022-11-18T09:35:07.959Z,17.72
2022-11-18T09:40:14.289Z,17.91
2022-11-18T09:45:24.306Z,17.47
2022-11-18T09:50:48.484Z,18.72
2022-11-18T09:55:32.090Z,18.46
2022-11-18T10:00:38.762Z,18.70
2022-11-18T10:05:44.885Z,18.12
2022-11-18T10:10:51.156Z,19.38
2022-11-18T10:15:57.638Z,20.41
2022-11-18T10:21:03.910Z,20.29
2022-11-18T10:26:10.020Z,21.21
2022-11-18T10:31:16.257Z,21.73
2022-11-18T10:36:22.362Z,22.41
2022-11-18T10:41:28.778Z,20.46
2022-11-18T10:46:34.917Z,21.62
2022-11-18T10:51:41.163Z,21.48
2022-11-18T10:56:47.275Z,21.06
2022-11-18T11:01:53.573Z,20.57
2022-11-18T11:06:59.692Z,19.86
2022-11-18T11:12:05.919Z,20.02
2022-11-18T11:17:12.125Z,20.14
2022-11-18T11:22:18.642Z,20.89
2022-11-18T11:32:30.414Z,19.59
2022-11-18T11:37:36.476Z,19.28
2022-11-18T11:42:42.630Z,17.55
2022-11-18T11:47:48.693Z,17.82
2022-11-18T11:52:54.851Z,16.67
2022-11-18T11:58:00.955Z,17.68
2022-11-18T12:03:07.980Z,16.92
2022-11-18T12:08:14.030Z,17.01
2022-11-18T12:13:20.960Z,17.84
2022-11-18T12:18:27.018Z,17.23
2022-11-18T12:23:33.186Z,17.06
2022-11-18T12:28:39.260Z,16.45
2022-11-18T12:33:45.404Z,15.88
2022-11-18T12:38:51.482Z,16.32
2022-11-18T12:43:57.989Z,16.31
2022-11-18T12:49:04.048Z,16.26
2022-11-18T12:54:13.821Z,15.73
2022-11-18T12:59:16.517Z,15.34
2022-11-18T13:04:21.859Z,15.45
2022-11-18T13:09:27.911Z,16.38
2022-11-18T13:14:34.064Z,16.35
2022-11-18T13:19:40.124Z,16.33
2022-11-18T13:24:46.304Z,15.65
2022-11-18T13:29:54.244Z,16.40
2022-11-18T13:34:58.071Z,16.36
2022-11-18T13:40:04.108Z,17.42
2022-11-18T13:45:10.269Z,17.20
2022-11-18T13:50:16.346Z,17.04
2022-11-18T13:55:22.505Z,17.78
2022-11-18T14:00:29.406Z,18.09
2022-11-18T14:05:35.555Z,17.40
2022-11-18T14:10:41.654Z,18.12
2022-11-18T14:15:47.887Z,18.27
2022-11-18T14:20:54.826Z,17.86
2022-11-18T14:26:01.424Z,19.22
2022-11-18T14:31:07.850Z,18.04
2022-11-18T14:36:14.008Z,18.73
2022-11-18T14:41:20.106Z,19.18
2022-11-18T14:46:26.366Z,19.05
2022-11-18T14:51:32.443Z,17.98
2022-11-18T14:56:38.680Z,19.29
2022-11-18T15:01:45.102Z,19.08
2022-11-18T15:06:51.522Z,19.12
2022-11-18T15:11:57.579Z,19.24
2022-11-18T15:17:03.793Z,20.98
2022-11-18T15:22:09.863Z,19.92
2022-11-18T15:27:16.095Z,20.62
2022-11-18T15:32:22.237Z,18.75
2022-11-18T15:37:28.457Z,20.85
2022-11-18T15:42:40.109Z,19.58
2022-11-18T15:47:40.543Z,19.07
2022-11-18T15:52:46.638Z,19.24
2022-11-18T15:57:52.836Z,17.55
2022-11-18T16:02:58.988Z,18.10
2022-11-18T16:08:05.154Z,17.62
2022-11-18T16:13:11.223Z,15.88
2022-11-18T16:18:17.464Z,16.28
2022-11-18T16:23:23.530Z,15.30
2022-11-18T16:28:29.827Z,15.14
2022-11-18T16:33:35.874Z,15.35
2022-11-18T16:38:42.098Z,16.12
2022-11-18T16:43:48.587Z,14.85
2022-11-18T16:48:55.196Z,13.99
2022-11-18T16:54:01.283Z,13.72
2022-11-18T16:59:07.575Z,13.01
2022-11-18T17:04:13.702Z,13.31
2022-11-18T17:09:20.065Z,12.48
2022-11-18T17:14:26.012Z,11.09
2022-11-18T17:19:32.602Z,10.36
2022-11-18T17:24:38.733Z,9.43
2022-11-18T17:29:45.422Z,8.61
2022-11-18T17:34:51.840Z,8.52
2022-11-18T17:39:58.067Z,7.93
2022-11-18T17:45:04.102Z,7.82
2022-11-18T17:50:10.411Z,7.46
2022-11-18T17:55:16.858Z,7.66
2022-11-18T18:00:23.047Z,7.05
2022-11-18T18:05:29.117Z,7.29
2022-11-18T18:10:35.399Z,6.45
2022-11-18T18:15:41.566Z,7.09
2022-11-18T18:20:47.802Z,6.70
2022-11-18T18:25:53.943Z,6.19
2022-11-18T18:31:00.131Z,6.66
2022-11-18T18:36:06.292Z,6.67
2022-11-18T18:41:12.584Z,6.09
2022-11-18T18:46:18.703Z,6.35
2022-11-18T18:51:24.875Z,5.81
2022-11-18T18:56:31.001Z,5.76
2022-11-18T19:01:37.308Z,5.35
2022-11-18T19:06:58.177Z,5.23
2022-11-18T19:11:49.121Z,5.02
2022-11-18T19:16:55.257Z,5.21
2022-11-18T19:22:01.504Z,5.71
2022-11-18T19:27:07.556Z,5.23
2022-11-18T19:32:13.703Z,5.14
2022-11-18T19:37:19.757Z,5.24
2022-11-18T19:42:25.944Z,5.30
2022-11-18T19:47:32.108Z,5.66
2022-11-18T19:52:38.244Z,5.14
2022-11-18T19:57:44.311Z,5.55
2022-11-18T20:02:50.519Z,5.20
2022-11-18T20:07:56.573Z,5.39
2022-11-18T20:13:02.808Z,5.06
2022-11-18T20:18:08.863Z,5.52
2022-11-18T20:23:15.201Z,5.08
2022-11-18T20:28:21.243Z,4.83
2022-11-18T20:33:27.426Z,5.21
2022-11-18T20:38:33.476Z,5.31
2022-11-18T20:43:39.618Z,5.77
2022-11-18T20:48:45.971Z,5.37
2022-11-18T20:53:52.133Z,5.62
2022-11-18T20:58:58.206Z,5.74
2022-11-18T21:04:04.374Z,6.04
2022-11-18T21:09:10.815Z,6.02
2022-11-18T21:14:21.863Z,6.39
2022-11-18T21:19:22.687Z,6.57
2022-11-18T21:24:28.756Z,6.44
2022-11-18T21:29:34.832Z,6.17
2022-11-18T21:34:41.319Z,6.39
2022-11-18T21:39:47.509Z,6.48
2022-11-18T21:44:53.809Z,6.53
2022-11-18T21:50:00.229Z,6.38
2022-11-18T21:55:06.501Z,7.02
2022-11-18T22:00:12.578Z,6.53
2022-11-18T22:05:18.903Z,6.45
2022-11-18T22:10:24.955Z,7.36
2022-11-18T22:15:31.195Z,6.81
2022-11-18T22:20:37.264Z,7.76
2022-11-18T22:25:43.443Z,7.54
2022-11-18T22:30:49.506Z,7.44
2022-11-18T22:35:56.044Z,7.59
2022-11-18T22:41:02.198Z,6.98
2022-11-18T22:46:08.386Z,7.53
2022-11-18T22:51:14.444Z,7.47
2022-11-18T22:56:20.702Z,7.63
2022-11-18T23:01:26.804Z,7.80
2022-11-18T23:06:33.014Z,7.24
2022-11-18T23:11:39.106Z,7.88
2022-11-18T23:16:45.306Z,7.85
2022-11-18T23:21:51.466Z,7.74
2022-11-18T23:26:57.649Z,7.54
2022-11-18T23:32:03.744Z,8.12
2022-11-18T23:37:09.927Z,8.64
2022-11-18T23:42:16.001Z,8.05
2022-11-18T23:47:22.259Z,7.64
2022-11-18T23:52:28.439Z,8.46
2022-11-18T23:57:34.762Z,7.43
